Airfield :
LOGIN :

Register | Disclaimer

   EN    FR    IT 

 










Legend :    VFR   Marginal VFR   IFR   Intensive IFR   Very Intensive IFR
Visi :
Ceiling :
>= 8 km
>= 3000ft
5 to 8 km
1000 to 3000 ft
1500m to 5 km
500 to 1000 ft
800 to 1500m
200 to 500 ft
< 800m
< 200 ft
Symbols :   Thunderstorms  Fog  Heavy snow  Heavy precipitations  Wind > 20 kt
SIGMETs :     Misc.  Thunderstorms  Icing  Turbulence  Mountain Waves  Volcanic Ashes







- Airport Elevation : 2044 ft


ETSA - Landsberg-Lech AB

CURRENT METAR :
  • 171420Z 04012KT 9999 BKN015 SCT025 M06/M09 Q1028 WHT GRN TEMPO BLU

EXPIRED METARs :
  • 171320Z 05012KT 9999 BKN013 BKN025 M06/M08 Q1027 GRN GRN TEMPO BLU
  • 171220Z 02011KT 9000 -SN FEW007 SCT010 BKN020 M06/M09 Q1027 WHT GRN TEMPO BLU

TAF TAF ETSA
Valid from the 17 at 15:00 until the 18 at 00:00 UTC


171428Z 1715/1724 02008KT 4000 BR BKN010 OVC020
TEMPO 1715/1718 04012KT 8000 NSW SCT010 BKN030
TEMPO 1718/1724 04008KT 2000 MIFG BKN006 BY ETGL
No reported NOTAMs for that airfield.
1 SIGMET reported for the München FIR (EDMM) :
 
Severe turbulence
EDMM SIGMET 2 VALID 171300/171700 EDZM
EDMM MUNCHEN FIR SEV TURB FCST WI N5117 E01504 - N5048 E01450 - N4910 E01313 - N4809 E00935 - N4958 E01042 - N5117 E01504 FL180/245 MOV SE NC=



MET'MAP, your aeronautical weather chart ! - Copyright ORBIFLY December 2007 - Disclaimer

ORBIFLY MET'MAP TEAM :

Programming & Development : Alexandra Zaïnal
Concept & Development : Baudouin d'Aumeries
Co-Development & Prog : Marc-Olivier Méhu
Technical & hardware support : Manuel Goepfert

Contact : metmap@orbifly.com




SOURCES & CREDITS :

   NOAA